Baker, OR

6:40 AM PST on December 03, 2016 (GMT -0800)
Baker City Municipal | | Change Station

Elev 3373 ft 44.84 °N, 117.81 °W | Updated 47 minutes ago

Overcast
Overcast
30 °F
Feels Like 30 °F
N
0
Wind Variable Wind from North

Today
High -- | Low -- °F
--% Chance of Precip.
Yesterday
High -- | Low -- °F
Precip. -- in
Pressure 30.30 in
Visibility 10.0 miles
Clouds Overcast 1600 ft
Dew Point 28 °F
Humidity 92%
Rainfall 0.00 in
Snow Depth Not available.
7:11 AM 4:10 PM
Waxing Crescent, 15% visible
METAR KBKE 031353Z AUTO 00000KT 10SM OVC016 M01/M02 A3022 RMK AO2 SLP260 T10111022
Pressure 30.30 in
Visibility 10.0 miles
Clouds Overcast 1600 ft
Dew Point 28 °F
Humidity 92%
Rainfall 0.00 in
Snow Depth Not available.
7:11 AM 4:10 PM
Waxing Crescent, 15% visible
METAR KBKE 031353Z AUTO 00000KT 10SM OVC016 M01/M02 A3022 RMK AO2 SLP260 T10111022

10-Day Weather Forecast

Almanac

Astronomy

Dec. 03, 2016 Rise Set
Actual Time
Civil Twilight
Nautical Twilight
Astronomical Twilight
Moon
Length of Visible Light
Length of Day
Tomorrow will be .
, % of the Moon is Illuminated

Today's Extremes

State Highs State Lows

Community

WunderPhotos

Upload Photos

1,955,446 photos uploaded!

WunderBlog® & News

Nearby

Air Quality

  Air Quality AQ Index Pollutant
Not available.

Snow Depth

Station Depth Elevation

Earthquake Activity

City Distance Mag. Time & Date
Minimum magnitude displayed is 2.5.

Coastal Water Temperatures

Place Temperature

Stations

Nearby Weather Stations

Station Location Temp. Windchill Dew Point Humidity Wind Precip. Elev Updated Type
                   

Watches & Warnings

There are currently no watches in effect.